Shamrock Jupiter — 3FXP2 — position and weather

sailwx.info

Track history (hours):
 
Tides and Currents Weather Stations Pressure Air Temp Water Temp Dewpoint Dewpoint Depression Visibility Wind Speed Wind Dir Waves Ship Positions

Shamrock Jupiter

Last reported at 2017-Nov-12 01:29 UTC. Time now 2017-Nov-21 12:18 UTC.
Position N 10°18' W 075°30'.
Warning: this ship's position is 9 days out of date.

Length 146 m; draft 7.8 m.

Type: Ship (hazmat cat B). MMSI: 370999000.

Date/timePositionNaut miles runAvg speedWind from/ knotsBaromVisibWave heightAir tempDewpointWater temp
2017-Nov-12 01:29N 10°18' W 075°30'0 0.0
2017-Nov-12 00:59N 10°18' W 075°30'0 0.0
2017-Nov-12 00:28N 10°18' W 075°30'0 0.0
2017-Nov-11 23:59N 10°18' W 075°30'0 0.0
2017-Nov-11 23:29N 10°18' W 075°30'0 0.0
2017-Nov-11 22:58N 10°18' W 075°30'0 0.0
2017-Nov-11 22:28N 10°18' W 075°30'0 0.0
2017-Nov-11 21:59N 10°18' W 075°30'0 0.0
2017-Nov-11 21:29N 10°18' W 075°30'0 0.0
2017-Nov-11 20:59N 10°18' W 075°30'0 0.0
2017-Nov-11 20:28N 10°18' W 075°30'0 0.0
2017-Nov-11 19:59N 10°18' W 075°30'0 0.0
2017-Nov-11 19:29N 10°18' W 075°30'0 0.0
2017-Nov-11 18:59N 10°18' W 075°30'0 0.0
2017-Nov-11 18:29N 10°18' W 075°30'0 0.0
2017-Nov-11 17:59N 10°18' W 075°30'0 0.0
2017-Nov-11 17:29N 10°18' W 075°30'0 0.0
2017-Nov-11 16:58N 10°18' W 075°30'0 0.0
2017-Nov-11 16:23N 10°18' W 075°30'1 3.8
2017-Nov-11 16:00N 10°19' W 075°31'5 9.3
2017-Nov-11 15:30N 10°24' W 075°32'1 1.0
2017-Nov-11 15:00N 10°24' W 075°32'0 0.0
2017-Nov-11 14:30N 10°24' W 075°32'0 0.0
2017-Nov-11 13:57N 10°24' W 075°32'0 0.0
2017-Nov-11 13:30N 10°24' W 075°32'0 0.0
2017-Nov-11 13:00N 10°24' W 075°32'0 0.0
2017-Nov-11 12:27N 10°24' W 075°32'0 0.0
2017-Nov-11 11:57N 10°24' W 075°32'0 0.0
2017-Nov-11 11:27N 10°24' W 075°32'0 0.0
2017-Nov-11 11:00N 10°24' W 075°32'0 0.0
2017-Nov-11 10:27N 10°24' W 075°32'0 0.0
2017-Nov-11 10:00N 10°24' W 075°32'0 0.0
2017-Nov-11 09:27N 10°24' W 075°32'0 0.0
2017-Nov-11 07:08N 10°24' W 075°32'0 0.0
2017-Nov-11 07:00N 10°24' W 075°32'0 0.0
2017-Nov-11 05:45N 10°24' W 075°32'0 0.0
2017-Nov-11 05:09N 10°24' W 075°32'0 0.0
2017-Nov-11 04:57N 10°24' W 075°32'0 0.0
2017-Nov-11 04:21N 10°24' W 075°32'0 0.0
2017-Nov-11 03:56N 10°24' W 075°32'0 0.0
2017-Nov-11 03:27N 10°24' W 075°32'0 0.0
2017-Nov-11 03:00N 10°24' W 075°32'0 0.0
2017-Nov-11 01:09N 10°24' W 075°32'0 0.0
2017-Nov-11 00:56N 10°24' W 075°32'1 2.3
2017-Nov-11 00:30N 10°24' W 075°32'4 9.0
2017-Nov-11 00:01N 10°19' W 075°33'3 5.3
2017-Nov-10 23:30N 10°19' W 075°36'510.7
2017-Nov-10 23:00N 10°19' W 075°42'713.0
2017-Nov-10 22:29N 10°26' W 075°43'713.1
2017-Nov-10 21:59N 10°32' W 075°42'  
2017-Nov-04 05:07N 11°21' W 074°35'112.7
2017-Nov-04 05:00N 11°20' W 074°37'612.6
2017-Nov-04 04:30N 11°16' W 074°42'612.4
2017-Nov-04 04:00N 11°13' W 074°47'612.9
2017-Nov-04 03:30N 11°09' W 074°53'4 8.0
2017-Nov-04 03:00N 11°06' W 074°51'612.6
2017-Nov-04 02:30N 11°01' W 074°47'4 0.3
2017-Nov-03 13:18N 10°57' W 074°46'0 1.2
2017-Nov-03 13:00N 10°58' W 074°45'3 7.0
2017-Nov-03 12:30N 11°01' W 074°46'4 8.7
2017-Nov-03 12:01N 11°03' W 074°50'4 8.2
2017-Nov-03 11:30N 11°07' W 074°52'5 9.5
2017-Nov-03 11:00N 11°07' W 074°57'  
Track history (hours):
 
Tides and Currents Weather Stations Pressure Air Temp Water Temp Dewpoint Dewpoint Depression Visibility Wind Speed Wind Dir Waves Ship Positions

Shamrock Jupiter

Last reported at 2017-Nov-12 01:29 UTC. Time now 2017-Nov-21 12:18 UTC.
Position N 10°18' W 075°30'.
Warning: this ship's position is 9 days out of date.

Length 146 m; draft 7.8 m.

Type: Ship (hazmat cat B). MMSI: 370999000.

Date/timePositionNaut miles runAvg speedWind from/ knotsBaromVisibWave heightAir tempDewpointWater temp
2017-Nov-12 01:29N 10°18' W 075°30'0 0.0
2017-Nov-12 00:59N 10°18' W 075°30'0 0.0
2017-Nov-12 00:28N 10°18' W 075°30'0 0.0
2017-Nov-11 23:59N 10°18' W 075°30'0 0.0
2017-Nov-11 23:29N 10°18' W 075°30'0 0.0
2017-Nov-11 22:58N 10°18' W 075°30'0 0.0
2017-Nov-11 22:28N 10°18' W 075°30'0 0.0
2017-Nov-11 21:59N 10°18' W 075°30'0 0.0
2017-Nov-11 21:29N 10°18' W 075°30'0 0.0
2017-Nov-11 20:59N 10°18' W 075°30'0 0.0
2017-Nov-11 20:28N 10°18' W 075°30'0 0.0
2017-Nov-11 19:59N 10°18' W 075°30'0 0.0
2017-Nov-11 19:29N 10°18' W 075°30'0 0.0
2017-Nov-11 18:59N 10°18' W 075°30'0 0.0
2017-Nov-11 18:29N 10°18' W 075°30'0 0.0
2017-Nov-11 17:59N 10°18' W 075°30'0 0.0
2017-Nov-11 17:29N 10°18' W 075°30'0 0.0
2017-Nov-11 16:58N 10°18' W 075°30'0 0.0
2017-Nov-11 16:23N 10°18' W 075°30'1 3.8
2017-Nov-11 16:00N 10°19' W 075°31'5 9.3
2017-Nov-11 15:30N 10°24' W 075°32'1 1.0
2017-Nov-11 15:00N 10°24' W 075°32'0 0.0
2017-Nov-11 14:30N 10°24' W 075°32'0 0.0
2017-Nov-11 13:57N 10°24' W 075°32'0 0.0
2017-Nov-11 13:30N 10°24' W 075°32'0 0.0
2017-Nov-11 13:00N 10°24' W 075°32'0 0.0
2017-Nov-11 12:27N 10°24' W 075°32'0 0.0
2017-Nov-11 11:57N 10°24' W 075°32'0 0.0
2017-Nov-11 11:27N 10°24' W 075°32'0 0.0
2017-Nov-11 11:00N 10°24' W 075°32'0 0.0
2017-Nov-11 10:27N 10°24' W 075°32'0 0.0
2017-Nov-11 10:00N 10°24' W 075°32'0 0.0
2017-Nov-11 09:27N 10°24' W 075°32'0 0.0
2017-Nov-11 07:08N 10°24' W 075°32'0 0.0
2017-Nov-11 07:00N 10°24' W 075°32'0 0.0
2017-Nov-11 05:45N 10°24' W 075°32'0 0.0
2017-Nov-11 05:09N 10°24' W 075°32'0 0.0
2017-Nov-11 04:57N 10°24' W 075°32'0 0.0
2017-Nov-11 04:21N 10°24' W 075°32'0 0.0
2017-Nov-11 03:56N 10°24' W 075°32'0 0.0
2017-Nov-11 03:27N 10°24' W 075°32'0 0.0
2017-Nov-11 03:00N 10°24' W 075°32'0 0.0
2017-Nov-11 01:09N 10°24' W 075°32'0 0.0
2017-Nov-11 00:56N 10°24' W 075°32'1 2.3
2017-Nov-11 00:30N 10°24' W 075°32'4 9.0
2017-Nov-11 00:01N 10°19' W 075°33'3 5.3
2017-Nov-10 23:30N 10°19' W 075°36'510.7
2017-Nov-10 23:00N 10°19' W 075°42'713.0
2017-Nov-10 22:29N 10°26' W 075°43'713.1
2017-Nov-10 21:59N 10°32' W 075°42'  
2017-Nov-04 05:07N 11°21' W 074°35'112.7
2017-Nov-04 05:00N 11°20' W 074°37'612.6
2017-Nov-04 04:30N 11°16' W 074°42'612.4
2017-Nov-04 04:00N 11°13' W 074°47'612.9
2017-Nov-04 03:30N 11°09' W 074°53'4 8.0
2017-Nov-04 03:00N 11°06' W 074°51'612.6
2017-Nov-04 02:30N 11°01' W 074°47'4 0.3
2017-Nov-03 13:18N 10°57' W 074°46'0 1.2
2017-Nov-03 13:00N 10°58' W 074°45'3 7.0
2017-Nov-03 12:30N 11°01' W 074°46'4 8.7
2017-Nov-03 12:01N 11°03' W 074°50'4 8.2
2017-Nov-03 11:30N 11°07' W 074°52'5 9.5
2017-Nov-03 11:00N 11°07' W 074°57'  

Dump ship's entire track history